Time;durP1;ratioP1;P1;durP2;ratioP2;P2;SDS_P1;SDS_P2;PMS_P1;PMS_P2;Temp;Humidity;BMP_temperature;BMP_pressure;BME280_temperature;BME280_humidity;BME280_pressure;Samples;Min_cycle;Max_cycle;Signal;HPM_P1;HPM_P2
2023/03/22 00:02:26;;;;;;;22.75;18.27;;;8.40;99.90;;;;;;6239739;22;20946;-78
2023/03/22 00:04:53;;;;;;;20.50;17.30;;;8.30;99.90;;;;;;6240633;23;20831;-78
2023/03/22 00:07:20;;;;;;;19.70;16.93;;;8.30;99.90;;;;;;6241098;23;20456;-79
2023/03/22 00:09:47;;;;;;;21.48;17.48;;;8.30;99.90;;;;;;6240286;22;20368;-79
2023/03/22 00:12:14;;;;;;;22.80;19.25;;;8.30;99.90;;;;;;6240371;23;20377;-79
2023/03/22 00:14:41;;;;;;;20.90;17.93;;;8.30;99.90;;;;;;6239735;22;20377;-78
2023/03/22 00:17:08;;;;;;;21.77;17.38;;;8.30;99.90;;;;;;6240917;23;20788;-78
2023/03/22 00:19:36;;;;;;;20.83;16.80;;;8.30;99.90;;;;;;6239395;22;20899;-78
2023/03/22 00:22:05;;;;;;;23.70;18.77;;;8.40;99.90;;;;;;6240824;23;20513;-78
2023/03/22 00:24:32;;;;;;;21.73;18.10;;;8.30;99.90;;;;;;6239746;22;20448;-78
2023/03/22 00:26:59;;;;;;;21.30;18.27;;;8.40;99.90;;;;;;6241246;23;20401;-78
2023/03/22 00:29:26;;;;;;;25.50;20.92;;;8.30;99.90;;;;;;6239934;22;20858;-78
2023/03/22 00:31:54;;;;;;;23.33;18.92;;;8.30;99.90;;;;;;6242314;22;20373;-78
2023/03/22 00:34:22;;;;;;;21.25;18.40;;;8.30;99.90;;;;;;6240256;23;20400;-77
2023/03/22 00:36:50;;;;;;;23.70;19.73;;;8.20;99.90;;;;;;6239626;22;20372;-78
2023/03/22 00:39:17;;;;;;;25.23;19.92;;;8.20;99.90;;;;;;6242595;22;20361;-78
2023/03/22 00:41:44;;;;;;;25.90;20.33;;;8.20;99.90;;;;;;6241941;22;20372;-78
2023/03/22 00:44:11;;;;;;;27.20;22.20;;;8.10;99.90;;;;;;6242473;23;20853;-78
2023/03/22 00:46:38;;;;;;;25.10;20.15;;;8.10;99.90;;;;;;6242186;22;20699;-78
2023/03/22 00:49:05;;;;;;;25.90;21.75;;;8.10;99.90;;;;;;6242136;23;20376;-80
2023/03/22 00:51:32;;;;;;;24.23;19.50;;;8.20;99.90;;;;;;6242253;22;20453;-80
2023/03/22 00:53:59;;;;;;;22.25;17.90;;;8.20;99.90;;;;;;6242047;23;20834;-80
2023/03/22 00:56:27;;;;;;;23.58;19.08;;;8.20;99.90;;;;;;6242683;23;20360;-78
2023/03/22 00:58:55;;;;;;;26.23;20.07;;;8.20;99.90;;;;;;6242268;22;20929;-78
2023/03/22 01:01:22;;;;;;;23.73;19.63;;;8.30;99.90;;;;;;6242537;23;20699;-80
2023/03/22 01:03:49;;;;;;;22.17;18.52;;;8.30;99.90;;;;;;6241625;22;20657;-78
2023/03/22 01:06:17;;;;;;;20.50;17.23;;;8.40;99.90;;;;;;6242248;23;20451;-78
2023/03/22 01:08:44;;;;;;;20.83;17.25;;;8.40;99.90;;;;;;6241774;22;20373;-78
2023/03/22 01:11:11;;;;;;;20.80;16.85;;;8.50;99.90;;;;;;6242068;23;20369;-78
2023/03/22 01:13:40;;;;;;;17.73;14.80;;;8.60;99.90;;;;;;6241695;22;20472;-78
2023/03/22 01:16:09;;;;;;;19.60;14.00;;;8.80;99.90;;;;;;6242232;23;20774;-77
2023/03/22 01:18:36;;;;;;;16.67;13.55;;;9.00;99.90;;;;;;6216416;22;20872;-77
2023/03/22 01:21:04;;;;;;;13.80;11.73;;;9.20;99.90;;;;;;6242492;23;20451;-77
2023/03/22 01:23:32;;;;;;;14.93;12.02;;;9.30;99.90;;;;;;6241271;22;20369;-77
2023/03/22 01:26:00;;;;;;;14.45;12.38;;;9.60;99.60;;;;;;6243267;22;20732;-78
2023/03/22 01:28:28;;;;;;;15.07;11.52;;;9.70;98.50;;;;;;6241981;23;20361;-77
2023/03/22 01:30:55;;;;;;;14.55;11.13;;;9.80;96.90;;;;;;6240388;22;20367;-78
2023/03/22 01:33:22;;;;;;;15.38;12.27;;;10.00;95.60;;;;;;6242030;22;20695;-77
2023/03/22 01:35:50;;;;;;;15.55;12.20;;;10.10;94.70;;;;;;6241173;22;20400;-77
2023/03/22 01:38:17;;;;;;;13.50;11.15;;;10.20;93.10;;;;;;6242761;23;20719;-77
2023/03/22 01:40:44;;;;;;;14.25;11.88;;;10.40;92.20;;;;;;6240700;22;20381;-77
2023/03/22 01:43:14;;;;;;;13.65;11.43;;;10.50;91.70;;;;;;6241424;23;20853;-77
2023/03/22 01:45:44;;;;;;;17.10;13.93;;;10.50;91.10;;;;;;6241102;22;20365;-77
2023/03/22 01:48:40;;;;;;;18.33;13.95;;;10.50;91.60;;;;;;6241846;23;20373;-78
2023/03/22 01:51:10;;;;;;;15.23;12.77;;;10.30;92.50;;;;;;6241132;22;20357;-78
2023/03/22 01:53:59;;;;;;;17.02;14.00;;;10.20;93.20;;;;;;6241183;23;20435;-78
2023/03/22 01:56:30;;;;;;;17.08;13.80;;;10.10;93.80;;;;;;6241023;22;20384;-77
2023/03/22 01:58:57;;;;;;;18.50;14.68;;;10.00;94.00;;;;;;6241928;23;20699;-77
2023/03/22 02:01:24;;;;;;;18.35;14.27;;;9.90;94.40;;;;;;6241671;22;20399;-83
2023/03/22 02:04:07;;;;;;;15.30;12.68;;;9.80;95.10;;;;;;6213716;23;20371;-83
2023/03/22 02:06:37;;;;;;;15.30;12.05;;;9.70;95.00;;;;;;6211532;23;20374;-83
2023/03/22 02:09:10;;;;;;;14.10;11.00;;;9.70;94.50;;;;;;6212492;23;20375;-83
2023/03/22 02:11:45;;;;;;;19.23;15.18;;;9.70;93.80;;;;;;6211349;23;20825;-82
2023/03/22 02:14:30;;;;;;;16.65;13.55;;;9.60;94.70;;;;;;6212179;23;20705;-82
2023/03/22 02:17:23;;;;;;;17.67;14.73;;;9.50;94.60;;;;;;6211650;23;20365;-82
2023/03/22 02:19:53;;;;;;;17.63;14.55;;;9.40;95.10;;;;;;6212388;23;20371;-82
2023/03/22 02:22:45;;;;;;;15.35;13.10;;;9.30;95.80;;;;;;6213397;23;20367;-82
2023/03/22 02:25:33;;;;;;;16.80;13.32;;;9.20;95.80;;;;;;6211448;23;20422;-82
2023/03/22 02:28:12;;;;;;;16.17;12.90;;;9.20;96.30;;;;;;6211373;23;20374;-83
2023/03/22 02:31:00;;;;;;;14.77;10.57;;;9.20;96.20;;;;;;6211885;23;20385;-82
2023/03/22 02:33:45;;;;;;;13.93;10.20;;;9.30;94.60;;;;;;6211234;23;20363;-83
2023/03/22 02:36:24;;;;;;;11.18;8.65;;;9.50;93.20;;;;;;6212553;23;20379;-84
2023/03/22 02:39:23;;;;;;;11.38;8.93;;;9.70;92.00;;;;;;6213486;23;20377;-82
2023/03/22 02:41:55;;;;;;;10.70;9.23;;;9.90;89.70;;;;;;6211439;23;20438;-81
2023/03/22 02:44:41;;;;;;;12.67;9.37;;;10.10;90.20;;;;;;6211543;23;20374;-81
2023/03/22 02:47:27;;;;;;;11.57;9.90;;;10.10;90.00;;;;;;6211192;23;20913;-83
2023/03/22 02:50:25;;;;;;;11.40;9.38;;;10.10;89.00;;;;;;6211564;23;22784;-83
2023/03/22 02:53:20;;;;;;;11.95;9.82;;;10.10;90.00;;;;;;6199032;23;20366;-82
2023/03/22 02:56:19;;;;;;;14.63;12.20;;;10.00;90.50;;;;;;6210776;23;20374;-83
2023/03/22 02:58:52;;;;;;;16.75;13.27;;;9.90;91.30;;;;;;6161653;23;20383;-82
2023/03/22 03:01:29;;;;;;;15.65;13.02;;;9.70;92.20;;;;;;6211553;23;20398;-83
2023/03/22 03:04:01;;;;;;;14.45;10.52;;;9.60;92.50;;;;;;6211027;22;20367;-84
2023/03/22 03:06:34;;;;;;;13.45;9.65;;;9.50;92.40;;;;;;6211530;23;20457;-82
2023/03/22 03:09:03;;;;;;;11.90;9.07;;;9.50;91.30;;;;;;6211318;22;20437;-84
2023/03/22 03:11:31;;;;;;;12.10;9.70;;;9.60;90.90;;;;;;6211908;23;20375;-82
2023/03/22 03:13:58;;;;;;;14.75;11.63;;;9.70;90.60;;;;;;6212516;22;20453;-77
2023/03/22 03:16:29;;;;;;;17.98;13.48;;;9.80;90.90;;;;;;6210107;22;20383;-77
2023/03/22 03:19:30;;;;;;;14.50;11.95;;;9.90;91.60;;;;;;6210984;22;20748;-77
2023/03/22 03:22:15;;;;;;;14.40;12.13;;;9.90;90.70;;;;;;6211524;22;20386;-77
2023/03/22 03:25:09;;;;;;;13.60;10.50;;;9.90;90.10;;;;;;6210603;23;20429;-77
2023/03/22 03:28:04;;;;;;;11.20;8.88;;;9.90;88.00;;;;;;6174229;22;20449;-77
2023/03/22 03:30:42;;;;;;;10.77;8.30;;;10.00;85.00;;;;;;6191048;22;21438;-77
2023/03/22 03:33:15;;;;;;;10.52;8.50;;;10.00;84.00;;;;;;6210299;23;20390;-77
2023/03/22 03:35:50;;;;;;;10.20;8.38;;;10.10;82.50;;;;;;6209434;22;20771;-77
2023/03/22 03:38:24;;;;;;;10.35;8.27;;;10.10;82.80;;;;;;6209503;22;20697;-78
2023/03/22 03:40:59;;;;;;;9.90;7.70;;;10.10;81.60;;;;;;6185643;23;20398;-79
2023/03/22 03:43:27;;;;;;;9.73;7.85;;;10.00;82.00;;;;;;6210670;22;20378;-82
2023/03/22 03:45:55;;;;;;;10.20;7.37;;;10.00;81.50;;;;;;6211819;23;20466;-83
2023/03/22 03:48:27;;;;;;;10.35;7.35;;;10.10;80.50;;;;;;6211030;22;20395;-82
2023/03/22 03:50:58;;;;;;;10.00;6.88;;;10.10;78.50;;;;;;6213054;22;20428;-83
2023/03/22 03:53:25;;;;;;;9.38;6.97;;;10.30;76.00;;;;;;6210238;22;20413;-84
2023/03/22 03:55:52;;;;;;;10.13;7.32;;;10.40;74.60;;;;;;6212676;22;20370;-84
2023/03/22 03:58:19;;;;;;;10.93;7.60;;;10.40;75.00;;;;;;6211301;23;20382;-81
2023/03/22 04:00:47;;;;;;;9.68;6.85;;;10.60;73.10;;;;;;6210691;22;20433;-84
2023/03/22 04:03:14;;;;;;;8.30;6.70;;;10.60;72.00;;;;;;6212789;22;20397;-82
2023/03/22 04:05:41;;;;;;;9.20;7.35;;;10.70;70.90;;;;;;6211206;22;20367;-82
2023/03/22 04:08:08;;;;;;;9.55;7.25;;;10.80;71.60;;;;;;6211397;22;20421;-82
2023/03/22 04:10:35;;;;;;;9.35;7.00;;;10.80;70.00;;;;;;6210523;22;20413;-81
2023/03/22 04:13:01;;;;;;;9.18;7.22;;;10.70;69.90;;;;;;6212553;22;20477;-82
2023/03/22 04:15:28;;;;;;;9.82;7.72;;;10.70;69.30;;;;;;6209887;22;20414;-82
2023/03/22 04:17:55;;;;;;;7.97;7.18;;;10.80;69.30;;;;;;6212434;22;20426;-82
2023/03/22 04:20:22;;;;;;;9.25;6.40;;;10.70;69.40;;;;;;6211019;23;20732;-82
2023/03/22 04:22:51;;;;;;;9.93;7.50;;;10.70;71.00;;;;;;6210214;23;20362;-83
2023/03/22 04:25:19;;;;;;;8.70;6.43;;;10.60;70.80;;;;;;6211137;23;20366;-83
2023/03/22 04:27:49;;;;;;;8.70;7.10;;;10.60;69.30;;;;;;6209856;22;20426;-83
2023/03/22 04:30:21;;;;;;;7.80;6.70;;;10.70;68.60;;;;;;6212250;22;20717;-84
2023/03/22 04:32:48;;;;;;;8.88;6.63;;;10.70;69.10;;;;;;6211351;22;20370;-83
2023/03/22 04:35:16;;;;;;;9.83;6.83;;;10.70;68.80;;;;;;6210863;23;20383;-82
2023/03/22 04:37:44;;;;;;;8.60;6.35;;;10.60;69.10;;;;;;6210349;22;20366;-82
2023/03/22 04:40:16;;;;;;;8.23;6.50;;;10.60;68.70;;;;;;6211166;22;20362;-83
2023/03/22 04:42:43;;;;;;;8.57;6.25;;;10.60;68.60;;;;;;6210368;22;20675;-82
2023/03/22 04:45:11;;;;;;;9.35;6.35;;;10.60;69.80;;;;;;6211378;23;20373;-82
2023/03/22 04:47:38;;;;;;;8.13;5.95;;;10.60;69.00;;;;;;6211691;22;20397;-83
2023/03/22 04:50:07;;;;;;;7.53;6.10;;;10.50;69.40;;;;;;6210856;23;20863;-82
2023/03/22 04:52:34;;;;;;;9.63;6.03;;;10.50;69.10;;;;;;6210011;22;20382;-83
2023/03/22 04:55:01;;;;;;;7.57;5.87;;;10.50;68.50;;;;;;6212186;22;20390;-83
2023/03/22 04:57:27;;;;;;;6.90;5.68;;;10.50;67.90;;;;;;6210293;22;20748;-82
2023/03/22 04:59:54;;;;;;;7.72;6.00;;;10.40;68.70;;;;;;6212187;22;20366;-82
2023/03/22 05:02:21;;;;;;;8.18;5.93;;;10.40;68.50;;;;;;6211113;23;20374;-81
2023/03/22 05:04:48;;;;;;;8.15;6.00;;;10.40;68.90;;;;;;6210094;22;20685;-83
2023/03/22 05:07:15;;;;;;;8.02;6.07;;;10.40;68.40;;;;;;6211275;23;20367;-82
2023/03/22 05:09:42;;;;;;;7.30;5.88;;;10.40;68.50;;;;;;6209486;22;20723;-83
2023/03/22 05:12:08;;;;;;;8.40;5.68;;;10.40;67.80;;;;;;6211067;23;20469;-85
2023/03/22 05:14:35;;;;;;;7.25;5.90;;;10.40;68.50;;;;;;6209669;22;20721;-84
2023/03/22 05:17:02;;;;;;;8.68;5.85;;;10.30;68.30;;;;;;6210769;22;20383;-82
2023/03/22 05:19:30;;;;;;;8.15;6.00;;;10.40;67.30;;;;;;6210223;22;20432;-82
2023/03/22 05:22:00;;;;;;;7.05;5.65;;;10.30;67.60;;;;;;6211122;23;20428;-83
2023/03/22 05:24:30;;;;;;;7.30;5.32;;;10.40;67.70;;;;;;6210936;23;20382;-82
2023/03/22 05:26:59;;;;;;;7.25;5.22;;;10.30;67.70;;;;;;6212369;22;20437;-83
2023/03/22 05:29:27;;;;;;;7.13;5.27;;;10.30;68.10;;;;;;6213738;22;20377;-84
2023/03/22 05:31:54;;;;;;;7.90;5.70;;;10.20;68.20;;;;;;6213424;22;20367;-85
2023/03/22 05:34:21;;;;;;;7.93;6.03;;;10.20;68.40;;;;;;6211611;23;20442;-82
2023/03/22 05:36:50;;;;;;;8.70;5.78;;;10.20;69.00;;;;;;6212005;22;20705;-83
2023/03/22 05:39:17;;;;;;;8.93;5.95;;;10.10;69.20;;;;;;6212457;23;20378;-82
2023/03/22 05:41:44;;;;;;;7.38;5.22;;;10.10;69.00;;;;;;6211640;22;20386;-82
2023/03/22 05:44:11;;;;;;;7.32;5.43;;;10.10;69.50;;;;;;6212636;22;20370;-81
2023/03/22 05:46:38;;;;;;;7.20;5.43;;;10.10;69.80;;;;;;6187097;22;20381;-82
2023/03/22 05:49:05;;;;;;;6.70;5.40;;;10.00;70.60;;;;;;6212091;23;20367;-85
2023/03/22 05:51:35;;;;;;;6.75;5.22;;;10.10;70.00;;;;;;6212805;23;20371;-84
2023/03/22 05:54:02;;;;;;;6.53;5.28;;;10.10;69.10;;;;;;6211709;22;20859;-82
2023/03/22 05:56:29;;;;;;;7.22;5.70;;;10.10;69.30;;;;;;6212402;22;20377;-81
2023/03/22 05:58:57;;;;;;;6.80;5.40;;;10.10;69.70;;;;;;6211872;22;20445;-83
2023/03/22 06:01:24;;;;;;;6.70;5.13;;;10.10;68.50;;;;;;6212410;23;20506;-83
2023/03/22 06:03:51;;;;;;;6.57;5.03;;;10.10;67.90;;;;;;6212873;22;20374;-84
2023/03/22 06:06:18;;;;;;;6.32;5.28;;;10.20;67.70;;;;;;6212431;23;20371;-83
2023/03/22 06:08:45;;;;;;;7.53;5.28;;;10.20;67.60;;;;;;6213022;22;20413;-82
2023/03/22 06:11:12;;;;;;;7.90;5.18;;;10.20;67.20;;;;;;6212027;22;20366;-83
2023/03/22 06:13:39;;;;;;;6.55;4.90;;;10.30;66.10;;;;;;6212326;23;20394;-83
2023/03/22 06:16:07;;;;;;;5.70;4.47;;;10.40;65.50;;;;;;6212021;22;20371;-82
2023/03/22 06:18:34;;;;;;;6.03;5.20;;;10.40;64.40;;;;;;6213704;22;20448;-82
2023/03/22 06:21:01;;;;;;;7.13;4.50;;;10.40;65.00;;;;;;6212861;22;20383;-82
2023/03/22 06:23:28;;;;;;;6.53;4.63;;;10.50;64.90;;;;;;6213272;22;20429;-83
2023/03/22 06:25:55;;;;;;;5.95;4.93;;;10.40;64.60;;;;;;6211488;22;20395;-83
2023/03/22 06:28:22;;;;;;;8.63;5.20;;;10.40;64.70;;;;;;6212046;23;20450;-83
2023/03/22 06:30:49;;;;;;;6.43;4.80;;;10.50;64.20;;;;;;6210891;22;20420;-83
2023/03/22 06:33:16;;;;;;;6.15;5.18;;;10.50;64.10;;;;;;6210559;23;20430;-82
2023/03/22 06:35:43;;;;;;;5.72;4.50;;;10.50;65.00;;;;;;6212247;22;20393;-81
2023/03/22 06:38:10;;;;;;;6.25;4.57;;;10.50;65.00;;;;;;6211616;23;20401;-83
2023/03/22 06:40:37;;;;;;;5.75;4.68;;;10.50;64.20;;;;;;6212040;23;20394;-82
2023/03/22 06:43:04;;;;;;;6.20;4.60;;;10.60;63.40;;;;;;6211664;22;20365;-83
2023/03/22 06:45:34;;;;;;;5.72;4.55;;;10.70;63.30;;;;;;6213554;22;20367;-82
2023/03/22 06:48:01;;;;;;;6.60;4.50;;;10.70;63.00;;;;;;6210628;22;20375;-84
2023/03/22 06:50:29;;;;;;;5.57;4.70;;;10.70;62.50;;;;;;6211640;23;20697;-82
2023/03/22 06:52:56;;;;;;;7.75;4.43;;;10.70;62.50;;;;;;6210447;22;20840;-81
2023/03/22 06:55:23;;;;;;;3.97;3.40;;;10.80;62.00;;;;;;6211641;23;20373;-82
2023/03/22 06:57:50;;;;;;;5.60;4.13;;;10.80;61.90;;;;;;6210905;22;20738;-82
2023/03/22 07:00:17;;;;;;;5.43;3.95;;;10.80;61.50;;;;;;6211480;23;20367;-82
2023/03/22 07:02:44;;;;;;;6.88;3.72;;;10.90;60.40;;;;;;6211516;22;20383;-83
2023/03/22 07:05:11;;;;;;;8.00;4.50;;;11.00;59.60;;;;;;6210030;23;20363;-82
2023/03/22 07:07:38;;;;;;;7.05;4.63;;;11.00;59.40;;;;;;6210696;22;20442;-82
2023/03/22 07:10:06;;;;;;;6.70;4.07;;;11.10;59.50;;;;;;6210560;22;20777;-82
2023/03/22 07:12:34;;;;;;;6.15;3.72;;;11.10;59.70;;;;;;6211431;23;20446;-83
2023/03/22 07:15:01;;;;;;;7.50;4.10;;;11.20;58.70;;;;;;6210105;22;20449;-83
2023/03/22 07:17:28;;;;;;;6.20;4.20;;;11.30;58.30;;;;;;6209935;23;20375;-82
2023/03/22 07:19:55;;;;;;;5.32;3.70;;;11.40;58.10;;;;;;6209986;22;20371;-82
2023/03/22 07:22:23;;;;;;;5.97;4.53;;;11.50;57.40;;;;;;6213192;22;20924;-83
2023/03/22 07:24:51;;;;;;;6.53;4.68;;;11.50;58.20;;;;;;6211366;22;20437;-83
2023/03/22 07:27:24;;;;;;;5.97;4.13;;;11.50;59.10;;;;;;6211018;23;20401;-83
2023/03/22 07:29:51;;;;;;;5.17;3.63;;;11.70;58.70;;;;;;6210067;22;20507;-81
2023/03/22 07:32:18;;;;;;;4.65;3.10;;;11.80;58.20;;;;;;6211324;23;20371;-83
2023/03/22 07:34:45;;;;;;;5.25;3.60;;;12.00;56.10;;;;;;6211428;23;20374;-83
2023/03/22 07:37:12;;;;;;;6.65;4.03;;;12.10;56.70;;;;;;6210605;22;20374;-83
2023/03/22 07:39:39;;;;;;;4.90;3.42;;;12.20;57.10;;;;;;6211613;23;20402;-82
2023/03/22 07:42:06;;;;;;;7.20;3.80;;;12.30;56.30;;;;;;6185728;22;20428;-82
2023/03/22 07:44:33;;;;;;;6.40;4.45;;;12.50;55.40;;;;;;6211651;23;20375;-83
2023/03/22 07:47:00;;;;;;;5.65;4.18;;;12.70;53.60;;;;;;6211167;22;20449;-81
2023/03/22 07:49:27;;;;;;;7.18;4.00;;;12.80;54.70;;;;;;6212020;22;20429;-82
2023/03/22 07:51:54;;;;;;;6.13;4.00;;;12.90;54.20;;;;;;6210043;22;20940;-81
2023/03/22 07:54:21;;;;;;;3.97;3.08;;;13.00;53.10;;;;;;6210895;23;20444;-81
2023/03/22 07:57:00;;;;;;;4.15;2.80;;;13.20;53.20;;;;;;6209759;22;20924;-81
2023/03/22 07:59:27;;;;;;;4.53;2.70;;;13.40;52.00;;;;;;6210729;23;20840;-83
2023/03/22 08:01:54;;;;;;;3.50;2.75;;;13.50;52.00;;;;;;6209726;22;20375;-82
2023/03/22 08:04:22;;;;;;;3.40;2.70;;;13.60;51.80;;;;;;6212341;22;20371;-82
2023/03/22 08:06:50;;;;;;;4.88;2.85;;;13.70;51.50;;;;;;6210440;23;20428;-82
2023/03/22 08:09:17;;;;;;;4.43;2.60;;;13.90;51.30;;;;;;6210153;22;20390;-82
2023/03/22 08:11:44;;;;;;;5.05;2.95;;;14.10;49.50;;;;;;6210748;23;20383;-82
2023/03/22 08:14:11;;;;;;;3.95;3.00;;;14.20;48.40;;;;;;6211676;22;20366;-81
2023/03/22 08:16:40;;;;;;;5.38;2.58;;;14.30;48.00;;;;;;6212671;22;20429;-82
2023/03/22 08:19:07;;;;;;;4.13;2.45;;;14.40;49.20;;;;;;6210315;22;20859;-82
2023/03/22 08:21:34;;;;;;;3.78;2.30;;;14.50;48.70;;;;;;6212348;22;20387;-84
2023/03/22 08:24:01;;;;;;;2.65;2.10;;;14.70;48.80;;;;;;6209844;22;20421;-83
2023/03/22 08:26:28;;;;;;;5.22;2.67;;;14.90;48.00;;;;;;6210686;23;20401;-83
2023/03/22 08:28:55;;;;;;;4.82;2.60;;;15.00;48.60;;;;;;6209805;22;20370;-82
2023/03/22 08:31:22;;;;;;;4.00;2.80;;;15.20;48.90;;;;;;6210874;23;20423;-81
2023/03/22 08:33:49;;;;;;;6.47;3.58;;;15.30;49.60;;;;;;6210664;23;20444;-81
2023/03/22 08:36:21;;;;;;;5.47;3.55;;;15.50;47.90;;;;;;6210076;22;20377;-80
2023/03/22 08:38:49;;;;;;;5.38;3.90;;;15.70;46.90;;;;;;6210455;23;20682;-82
2023/03/22 08:41:16;;;;;;;9.00;5.75;;;15.90;48.20;;;;;;6210154;22;20457;-80
2023/03/22 08:43:42;;;;;;;9.77;6.82;;;16.00;47.20;;;;;;6212167;23;20429;-81
2023/03/22 08:46:09;;;;;;;10.77;7.45;;;16.10;50.30;;;;;;6210091;22;20398;-80
2023/03/22 08:48:37;;;;;;;9.38;6.15;;;16.20;50.80;;;;;;6210185;22;20469;-80
2023/03/22 08:51:05;;;;;;;9.02;5.60;;;16.30;48.70;;;;;;6210170;22;20367;-81
2023/03/22 08:53:32;;;;;;;11.38;6.93;;;16.50;49.20;;;;;;6210979;23;20473;-81
2023/03/22 08:56:00;;;;;;;9.93;6.50;;;16.50;48.80;;;;;;6212199;22;20378;-81
2023/03/22 08:58:27;;;;;;;11.18;7.68;;;16.60;48.70;;;;;;6210929;22;20482;-80
2023/03/22 09:00:54;;;;;;;11.85;8.95;;;16.80;49.60;;;;;;6210220;23;20424;-81
2023/03/22 09:03:23;;;;;;;14.15;10.63;;;16.90;50.00;;;;;;6211877;23;20370;-81
2023/03/22 09:05:50;;;;;;;15.07;11.85;;;17.00;49.80;;;;;;6214331;22;20362;-81
2023/03/22 09:08:18;;;;;;;22.35;15.32;;;17.10;50.70;;;;;;6210883;22;20374;-83
2023/03/22 09:10:50;;;;;;;23.60;17.80;;;17.10;51.20;;;;;;6213164;23;20377;-82
2023/03/22 09:13:17;;;;;;;21.80;17.40;;;17.20;53.00;;;;;;6211304;22;20377;-79
2023/03/22 09:15:44;;;;;;;23.05;16.13;;;17.20;54.40;;;;;;6212727;23;20704;-81
2023/03/22 09:18:11;;;;;;;19.48;14.43;;;17.30;53.50;;;;;;6211549;22;20465;-83
2023/03/22 09:20:38;;;;;;;19.83;15.15;;;17.40;53.30;;;;;;6213318;23;20712;-83
2023/03/22 09:23:06;;;;;;;21.08;15.82;;;17.50;52.20;;;;;;6211966;22;20378;-82
2023/03/22 09:25:33;;;;;;;18.65;14.85;;;17.50;53.40;;;;;;6212514;23;20745;-82
2023/03/22 09:28:00;;;;;;;21.10;16.50;;;17.60;53.60;;;;;;6209850;22;20433;-81
2023/03/22 09:30:27;;;;;;;21.92;16.88;;;17.70;53.50;;;;;;6211656;23;20374;-81
2023/03/22 09:32:56;;;;;;;22.85;18.00;;;17.80;53.10;;;;;;6213814;22;20378;-82
2023/03/22 09:35:23;;;;;;;21.90;17.55;;;17.80;52.40;;;;;;6211124;22;20728;-81
2023/03/22 09:37:52;;;;;;;21.52;17.42;;;17.90;53.20;;;;;;6212533;23;20678;-82
2023/03/22 09:40:23;;;;;;;23.25;18.85;;;17.80;52.70;;;;;;6212268;22;20433;-81
2023/03/22 09:42:53;;;;;;;22.70;19.33;;;17.90;53.60;;;;;;6211671;23;20370;-81
2023/03/22 09:45:34;;;;;;;20.40;16.75;;;17.90;53.00;;;;;;6211021;22;20366;-82
2023/03/22 09:48:05;;;;;;;23.80;18.48;;;18.00;55.20;;;;;;6210789;22;20370;-80
2023/03/22 09:50:38;;;;;;;22.13;16.60;;;18.20;53.40;;;;;;6212083;23;20367;-81
2023/03/22 09:53:12;;;;;;;22.05;18.08;;;18.10;53.40;;;;;;6212223;22;20409;-82
2023/03/22 09:56:01;;;;;;;24.48;18.63;;;18.30;53.20;;;;;;6212190;23;20780;-81
2023/03/22 09:58:54;;;;;;;22.80;18.60;;;18.30;53.40;;;;;;6213045;22;20367;-82
2023/03/22 10:01:46;;;;;;;24.65;18.98;;;18.20;52.20;;;;;;6211293;22;20379;-81
2023/03/22 10:04:24;;;;;;;24.50;18.77;;;18.30;52.90;;;;;;6211291;22;20375;-80
2023/03/22 10:07:05;;;;;;;22.73;18.63;;;18.30;53.80;;;;;;6211845;23;20446;-81
2023/03/22 10:09:47;;;;;;;22.90;17.75;;;18.50;54.40;;;;;;6187082;22;20729;-81
2023/03/22 10:12:49;;;;;;;19.10;16.52;;;18.70;55.20;;;;;;6211988;22;20367;-81
2023/03/22 10:15:27;;;;;;;21.58;17.85;;;18.70;54.40;;;;;;6165886;22;20379;-80
2023/03/22 10:17:56;;;;;;;22.85;19.00;;;18.90;53.50;;;;;;6211994;23;20438;-83
2023/03/22 10:20:52;;;;;;;25.23;18.83;;;19.00;54.20;;;;;;6211192;22;20449;-83
2023/03/22 10:23:29;;;;;;;22.50;19.05;;;19.10;53.20;;;;;;6211010;22;20713;-81
2023/03/22 10:25:59;;;;;;;22.75;19.63;;;19.10;52.50;;;;;;6212016;23;20773;-81
2023/03/22 10:28:37;;;;;;;21.77;18.50;;;19.20;51.90;;;;;;6210916;22;20402;-80
2023/03/22 10:31:05;;;;;;;22.27;18.48;;;19.10;52.90;;;;;;6212916;22;20406;-81
2023/03/22 10:33:50;;;;;;;27.95;21.45;;;19.20;53.10;;;;;;6211011;22;20796;-81
2023/03/22 10:36:22;;;;;;;24.05;19.35;;;19.30;52.70;;;;;;6210698;22;20371;-80
2023/03/22 10:38:55;;;;;;;24.40;18.92;;;19.30;51.10;;;;;;6186816;23;20725;-81
2023/03/22 10:41:24;;;;;;;26.58;19.88;;;19.40;51.50;;;;;;6210867;22;20406;-81
2023/03/22 10:44:00;;;;;;;21.17;17.38;;;19.40;52.00;;;;;;6211972;23;20363;-81
2023/03/22 10:46:35;;;;;;;23.38;18.15;;;19.50;50.60;;;;;;6212215;22;20367;-80
2023/03/22 10:49:03;;;;;;;20.40;18.08;;;19.60;50.80;;;;;;6211482;23;20449;-81
2023/03/22 10:51:37;;;;;;;21.95;18.67;;;19.70;50.10;;;;;;6210877;22;20879;-80
2023/03/22 10:54:05;;;;;;;23.27;18.52;;;19.80;49.30;;;;;;6211432;23;20744;-79
2023/03/22 10:56:32;;;;;;;21.55;18.00;;;19.90;50.40;;;;;;6210154;22;20363;-82
2023/03/22 10:58:59;;;;;;;19.58;16.58;;;19.90;50.20;;;;;;6211256;23;20701;-82
2023/03/22 11:01:31;;;;;;;20.80;16.52;;;20.00;50.20;;;;;;6209986;22;20371;-82
2023/03/22 11:04:10;;;;;;;21.75;17.65;;;20.10;49.80;;;;;;6211142;23;20399;-83
2023/03/22 11:06:40;;;;;;;22.50;19.35;;;20.20;50.00;;;;;;6210480;22;20367;-80
2023/03/22 11:09:21;;;;;;;22.13;17.90;;;20.20;48.30;;;;;;6211184;23;20390;-80
2023/03/22 11:11:59;;;;;;;25.05;18.75;;;20.10;48.80;;;;;;6210512;22;20402;-81
2023/03/22 11:14:30;;;;;;;22.05;18.75;;;20.20;48.80;;;;;;6210566;22;20756;-80
2023/03/22 11:16:59;;;;;;;23.85;19.23;;;20.20;48.20;;;;;;6210861;23;20425;-79
2023/03/22 11:19:31;;;;;;;20.73;17.90;;;20.30;48.20;;;;;;6210297;22;20740;-79
2023/03/22 11:22:00;;;;;;;24.00;18.98;;;20.40;47.80;;;;;;6211121;23;20375;-80
2023/03/22 11:24:29;;;;;;;23.20;18.70;;;20.30;47.20;;;;;;6210469;22;20394;-80
2023/03/22 11:27:25;;;;;;;24.02;19.02;;;20.40;48.10;;;;;;6211126;23;20704;-80
2023/03/22 11:29:57;;;;;;;24.20;19.35;;;20.60;46.80;;;;;;6211640;22;20363;-80
2023/03/22 11:32:29;;;;;;;24.95;20.08;;;20.50;48.10;;;;;;6211133;23;20395;-81
2023/03/22 11:35:22;;;;;;;21.30;18.02;;;20.50;46.50;;;;;;6210659;23;20776;-80
2023/03/22 11:37:54;;;;;;;24.88;20.48;;;20.40;47.20;;;;;;6211558;22;20745;-80
2023/03/22 11:40:26;;;;;;;27.33;21.70;;;20.50;45.80;;;;;;6211082;22;20740;-80
2023/03/22 11:43:25;;;;;;;26.25;20.77;;;20.50;46.90;;;;;;6209907;22;20377;-81
2023/03/22 11:45:56;;;;;;;23.65;18.48;;;20.60;47.20;;;;;;6210268;22;20697;-80
2023/03/22 11:48:27;;;;;;;21.33;16.38;;;20.60;47.70;;;;;;6211092;23;20362;-80
2023/03/22 11:51:03;;;;;;;22.00;18.30;;;20.80;47.20;;;;;;6210080;22;20363;-80
2023/03/22 11:53:34;;;;;;;19.10;16.27;;;21.00;47.10;;;;;;6210822;23;20860;-80
2023/03/22 11:56:06;;;;;;;22.20;18.77;;;21.30;45.30;;;;;;6210726;22;20437;-80
2023/03/22 11:58:43;;;;;;;19.50;16.58;;;21.50;44.10;;;;;;6210342;23;20379;-80
2023/03/22 12:01:22;;;;;;;20.73;16.25;;;21.60;45.70;;;;;;6210969;22;20465;-80
2023/03/22 12:03:56;;;;;;;23.02;17.98;;;21.60;44.90;;;;;;6209984;22;20379;-81
2023/03/22 12:06:42;;;;;;;24.20;18.77;;;21.70;44.80;;;;;;6210741;23;20737;-80
2023/03/22 12:09:40;;;;;;;21.63;17.63;;;21.90;44.20;;;;;;6210356;22;20464;-80
2023/03/22 12:12:16;;;;;;;24.40;19.25;;;22.00;43.50;;;;;;6201788;22;20382;-80
2023/03/22 12:15:08;;;;;;;26.73;21.30;;;21.90;43.90;;;;;;6211373;22;20374;-80
2023/03/22 12:17:55;;;;;;;22.15;18.60;;;21.70;43.80;;;;;;6209729;23;20373;-81
2023/03/22 12:20:39;;;;;;;23.55;20.08;;;21.80;45.30;;;;;;6209781;22;20386;-80
2023/03/22 12:23:21;;;;;;;27.00;19.85;;;21.90;43.40;;;;;;6210628;23;20429;-81
2023/03/22 12:25:57;;;;;;;24.77;18.75;;;21.80;42.80;;;;;;6209702;22;20421;-81
2023/03/22 12:29:02;;;;;;;23.65;19.13;;;21.80;42.90;;;;;;6210254;23;20379;-83
2023/03/22 12:31:38;;;;;;;26.08;18.65;;;21.80;42.80;;;;;;6150740;23;20398;-79
2023/03/22 12:34:15;;;;;;;21.33;18.55;;;21.80;45.50;;;;;;6209265;22;20374;-79
2023/03/22 12:36:55;;;;;;;24.23;20.23;;;21.90;43.30;;;;;;6210812;23;20701;-80
2023/03/22 12:39:24;;;;;;;24.50;20.23;;;22.00;43.10;;;;;;6209833;22;20398;-79
2023/03/22 12:41:54;;;;;;;22.70;19.85;;;22.00;43.40;;;;;;6210283;23;20753;-80
2023/03/22 12:44:31;;;;;;;25.20;19.88;;;22.10;42.60;;;;;;6209032;22;20724;-80
2023/03/22 12:47:05;;;;;;;21.67;17.95;;;22.20;42.50;;;;;;6209942;23;20371;-81
2023/03/22 12:49:32;;;;;;;22.10;18.60;;;22.20;42.80;;;;;;6210751;22;20370;-81
2023/03/22 12:52:23;;;;;;;27.77;22.17;;;22.00;42.50;;;;;;6210176;23;21273;-80
2023/03/22 12:54:58;;;;;;;21.23;17.95;;;22.00;42.70;;;;;;6209025;22;20382;-80
2023/03/22 12:57:25;;;;;;;21.65;18.25;;;21.80;41.80;;;;;;6209418;23;20437;-82
2023/03/22 12:59:55;;;;;;;21.90;17.70;;;21.80;42.80;;;;;;6209854;22;20701;-82
2023/03/22 13:02:28;;;;;;;20.40;16.65;;;21.90;44.20;;;;;;6209823;23;20374;-83